SBCTSBGO

Guest
Details From SBCT - Afonso Pena
To SBGO - Santo Genoveva
Flight Number -
Tags Generated
Created
Modified
Stats Distance 535 nm / 990 km
Max Altitude 0 ft / 0 m
Waypoints 3
Social Downloads 4
Likes 0
Share VATSIM

Download

Looking for another format? Having issues loading an existing format? Contact us
Advertisement - Login to hide

Notes

Generated

Route

SBCT GOI SBGO

ID Type Via Altitude Latitude Longitude Leg Dist Tot Dist Heading (true) Name
O SBCT APT - 0 ft / 0 m -25.52836˚ -49.18010˚ - 0 nm - -
GOI NDB - 0 ft / 0 m -16.63720˚ -49.22439˚ 533 nm 533 nm 360° / 360° GOIANIA NDB
O SBGO APT - 0 ft / 0 m -16.62634˚ -49.23081˚ 0 nm 534 nm 330° / 330° -

Altitude Profile

Advertisement - Login to hide

Weather


0- 5 10 15 20 25 30 35+ Temperature / ° C

Clouds and Precipitation
Forecast for 2018-05-22 18:00 UTC. Updated 27 minutes ago

Ground ~20,000 ft ~40,000 ft Winds

SBCT

Details ICAO SBCT (CWB)
Name Afonso Pena
Region Brazil
Timezone America/Sao_Paulo (UTC-3.0)
Stats Elevation 2,988 ft / 911 m (AMSL)
Location -25.528885° -49.173062°
Runways 2
Magnetic Variation 19.674° W

METAR

SBCT 221700Z 29008KT CAVOK 21/01 Q1019

Decode

TAF

TAF SBCT 220900Z 2212/2312 08005KT CAVOK TX20/2218Z TN06/2309Z BECMG 2212/2214 31005KT BECMG 2222/2224 08005KT 9999 BKN008 PROB40 2308/2310 2000 BCFG BKN002 RMK PDJ

Decode

Departure Runways

ID Width Length Bearing (true) Bearing (mag) Surface Threshold Offset Overrun Length
11 148 ft / 45 m 5,909 ft / 1,801 m 91.79° 111.46° Asphalt 0 ft / 0 m 0 ft / 0 m
15 148 ft / 45 m 7,290 ft / 2,222 m 134.76° 154.43° Asphalt 0 ft / 0 m 190 ft / 58 m
29 148 ft / 45 m 5,909 ft / 1,801 m 271.78° 291.45° Asphalt 0 ft / 0 m 0 ft / 0 m
33 148 ft / 45 m 7,290 ft / 2,222 m 314.75° 334.42° Asphalt 0 ft / 0 m 185 ft / 56 m

SBGO

Details ICAO SBGO (GYN)
Name Santo Genoveva
Region Brazil
Timezone America/Sao_Paulo (UTC-3.0)
Stats Elevation 2,450 ft / 747 m (AMSL)
Location -16.632032° -49.220686°
Runways 1
Magnetic Variation 21.038° W

METAR

SBGO 221700Z VRB05KT CAVOK 29/05 Q1018

Decode

TAF

TAF SBGO 220800Z 2212/2312 15005KT CAVOK TX26/2219Z TN09/2309Z BECMG 2218/2220 13005KT 7000 FEW020 BECMG 2300/2302 13005KT CAVOK RMK PDE

Decode

Destination Runways

ID Width Length Bearing (true) Bearing (mag) Surface Threshold Offset Overrun Length
14 148 ft / 45 m 8,208 ft / 2,502 m 120.42° 141.46° Asphalt 0 ft / 0 m 0 ft / 0 m
32 148 ft / 45 m 8,208 ft / 2,502 m 300.41° 321.45° Asphalt 980 ft / 299 m 0 ft / 0 m

Popular Alternatives